sensor_id;sensor_type;location;lat;lon;timestamp;P1;durP1;ratioP1;P2;durP2;ratioP2
69900;SDS011;57183;50.930;5.406;2022-09-13T00:00:37;6.57;;;4.50;;
69900;SDS011;57183;50.930;5.406;2022-09-13T00:03:05;8.77;;;5.80;;
69900;SDS011;57183;50.930;5.406;2022-09-13T00:05:32;5.90;;;4.95;;
69900;SDS011;57183;50.930;5.406;2022-09-13T00:07:59;5.20;;;4.47;;
69900;SDS011;57183;50.930;5.406;2022-09-13T00:10:24;7.35;;;5.38;;
69900;SDS011;57183;50.930;5.406;2022-09-13T00:12:52;6.03;;;4.97;;
69900;SDS011;57183;50.930;5.406;2022-09-13T00:15:18;5.13;;;4.63;;
69900;SDS011;57183;50.930;5.406;2022-09-13T00:17:44;5.68;;;4.38;;
69900;SDS011;57183;50.930;5.406;2022-09-13T00:20:10;8.80;;;4.45;;
69900;SDS011;57183;50.930;5.406;2022-09-13T00:22:36;4.85;;;4.40;;
69900;SDS011;57183;50.930;5.406;2022-09-13T00:25:02;6.55;;;4.32;;
69900;SDS011;57183;50.930;5.406;2022-09-13T00:27:29;5.50;;;4.03;;
69900;SDS011;57183;50.930;5.406;2022-09-13T00:29:57;7.47;;;3.92;;
69900;SDS011;57183;50.930;5.406;2022-09-13T00:32:22;4.78;;;4.18;;
69900;SDS011;57183;50.930;5.406;2022-09-13T00:34:48;5.93;;;4.03;;
69900;SDS011;57183;50.930;5.406;2022-09-13T00:37:14;8.18;;;5.07;;
69900;SDS011;57183;50.930;5.406;2022-09-13T00:39:39;7.85;;;5.57;;
69900;SDS011;57183;50.930;5.406;2022-09-13T00:42:07;6.18;;;5.57;;
69900;SDS011;57183;50.930;5.406;2022-09-13T00:47:46;5.35;;;3.92;;
69900;SDS011;57183;50.930;5.406;2022-09-13T00:52:59;9.15;;;5.57;;
69900;SDS011;57183;50.930;5.406;2022-09-13T00:55:42;5.53;;;5.03;;
69900;SDS011;57183;50.930;5.406;2022-09-13T00:58:21;6.18;;;5.20;;
69900;SDS011;57183;50.930;5.406;2022-09-13T01:00:54;6.78;;;4.72;;
69900;SDS011;57183;50.930;5.406;2022-09-13T01:03:23;5.85;;;4.50;;
69900;SDS011;57183;50.930;5.406;2022-09-13T01:05:57;5.65;;;4.45;;
69900;SDS011;57183;50.930;5.406;2022-09-13T01:08:30;6.10;;;4.25;;
69900;SDS011;57183;50.930;5.406;2022-09-13T01:10:59;5.75;;;4.45;;
69900;SDS011;57183;50.930;5.406;2022-09-13T01:13:31;7.82;;;5.15;;
69900;SDS011;57183;50.930;5.406;2022-09-13T01:15:58;6.80;;;5.25;;
69900;SDS011;57183;50.930;5.406;2022-09-13T01:18:24;8.02;;;5.18;;
69900;SDS011;57183;50.930;5.406;2022-09-13T01:31:47;6.63;;;4.60;;
69900;SDS011;57183;50.930;5.406;2022-09-13T01:34:38;4.80;;;4.40;;
69900;SDS011;57183;50.930;5.406;2022-09-13T01:55:53;6.03;;;4.18;;
69900;SDS011;57183;50.930;5.406;2022-09-13T02:01:18;6.03;;;3.90;;
69900;SDS011;57183;50.930;5.406;2022-09-13T02:04:06;4.03;;;3.63;;
69900;SDS011;57183;50.930;5.406;2022-09-13T02:09:21;3.85;;;3.55;;
69900;SDS011;57183;50.930;5.406;2022-09-13T02:11:53;4.18;;;3.67;;
69900;SDS011;57183;50.930;5.406;2022-09-13T02:16:58;6.68;;;4.28;;
69900;SDS011;57183;50.930;5.406;2022-09-13T02:19:32;6.72;;;3.53;;
69900;SDS011;57183;50.930;5.406;2022-09-13T02:22:06;6.43;;;3.75;;
69900;SDS011;57183;50.930;5.406;2022-09-13T02:24:38;4.72;;;3.53;;
69900;SDS011;57183;50.930;5.406;2022-09-13T02:27:14;6.43;;;3.50;;
69900;SDS011;57183;50.930;5.406;2022-09-13T02:29:45;6.05;;;3.55;;
69900;SDS011;57183;50.930;5.406;2022-09-13T02:34:44;4.45;;;3.92;;
69900;SDS011;57183;50.930;5.406;2022-09-13T02:37:16;5.25;;;3.83;;
69900;SDS011;57183;50.930;5.406;2022-09-13T02:39:50;5.18;;;3.65;;
69900;SDS011;57183;50.930;5.406;2022-09-13T02:42:32;14.75;;;3.88;;
69900;SDS011;57183;50.930;5.406;2022-09-13T02:47:48;6.65;;;3.40;;
69900;SDS011;57183;50.930;5.406;2022-09-13T02:55:24;5.15;;;3.00;;
69900;SDS011;57183;50.930;5.406;2022-09-13T03:00:54;4.30;;;3.33;;
69900;SDS011;57183;50.930;5.406;2022-09-13T03:03:20;3.92;;;3.25;;
69900;SDS011;57183;50.930;5.406;2022-09-13T03:05:46;3.38;;;3.08;;
69900;SDS011;57183;50.930;5.406;2022-09-13T03:08:12;4.60;;;3.42;;
69900;SDS011;57183;50.930;5.406;2022-09-13T03:10:50;4.72;;;3.17;;
69900;SDS011;57183;50.930;5.406;2022-09-13T03:13:46;4.43;;;2.95;;
69900;SDS011;57183;50.930;5.406;2022-09-13T03:19:03;5.07;;;3.25;;
69900;SDS011;57183;50.930;5.406;2022-09-13T03:24:25;10.88;;;3.78;;
69900;SDS011;57183;50.930;5.406;2022-09-13T03:27:12;5.35;;;3.67;;
69900;SDS011;57183;50.930;5.406;2022-09-13T03:37:36;3.80;;;3.30;;
69900;SDS011;57183;50.930;5.406;2022-09-13T03:45:29;3.88;;;3.47;;
69900;SDS011;57183;50.930;5.406;2022-09-13T03:47:58;8.55;;;3.67;;
69900;SDS011;57183;50.930;5.406;2022-09-13T03:50:24;7.65;;;4.30;;
69900;SDS011;57183;50.930;5.406;2022-09-13T03:52:58;6.65;;;3.80;;
69900;SDS011;57183;50.930;5.406;2022-09-13T03:55:27;5.88;;;3.80;;
69900;SDS011;57183;50.930;5.406;2022-09-13T03:57:55;5.07;;;3.58;;
69900;SDS011;57183;50.930;5.406;2022-09-13T04:00:21;4.93;;;3.55;;
69900;SDS011;57183;50.930;5.406;2022-09-13T04:02:47;4.88;;;4.43;;
69900;SDS011;57183;50.930;5.406;2022-09-13T04:05:12;5.05;;;4.65;;
69900;SDS011;57183;50.930;5.406;2022-09-13T04:07:38;7.43;;;4.15;;
69900;SDS011;57183;50.930;5.406;2022-09-13T04:10:04;4.70;;;3.92;;
69900;SDS011;57183;50.930;5.406;2022-09-13T04:12:30;7.10;;;4.63;;
69900;SDS011;57183;50.930;5.406;2022-09-13T04:14:56;13.93;;;8.30;;
69900;SDS011;57183;50.930;5.406;2022-09-13T04:17:22;9.40;;;4.15;;
69900;SDS011;57183;50.930;5.406;2022-09-13T04:19:48;6.63;;;3.60;;
69900;SDS011;57183;50.930;5.406;2022-09-13T04:22:14;6.15;;;4.13;;
69900;SDS011;57183;50.930;5.406;2022-09-13T04:24:40;3.70;;;3.40;;
69900;SDS011;57183;50.930;5.406;2022-09-13T04:27:07;4.82;;;4.00;;
69900;SDS011;57183;50.930;5.406;2022-09-13T04:29:33;5.07;;;3.00;;
69900;SDS011;57183;50.930;5.406;2022-09-13T04:31:58;3.65;;;3.35;;
69900;SDS011;57183;50.930;5.406;2022-09-13T04:34:24;4.25;;;2.92;;
69900;SDS011;57183;50.930;5.406;2022-09-13T04:36:50;4.28;;;2.97;;
69900;SDS011;57183;50.930;5.406;2022-09-13T04:39:20;4.40;;;3.92;;
69900;SDS011;57183;50.930;5.406;2022-09-13T04:41:47;4.63;;;3.50;;
69900;SDS011;57183;50.930;5.406;2022-09-13T04:44:15;5.15;;;3.70;;
69900;SDS011;57183;50.930;5.406;2022-09-13T04:46:42;5.25;;;3.75;;
69900;SDS011;57183;50.930;5.406;2022-09-13T04:49:12;5.80;;;3.67;;
69900;SDS011;57183;50.930;5.406;2022-09-13T04:51:38;4.85;;;3.60;;
69900;SDS011;57183;50.930;5.406;2022-09-13T04:54:04;5.53;;;3.40;;
69900;SDS011;57183;50.930;5.406;2022-09-13T04:56:30;5.53;;;3.72;;
69900;SDS011;57183;50.930;5.406;2022-09-13T04:58:56;5.57;;;3.42;;
69900;SDS011;57183;50.930;5.406;2022-09-13T05:01:22;4.90;;;3.47;;
69900;SDS011;57183;50.930;5.406;2022-09-13T05:03:49;6.07;;;3.85;;
69900;SDS011;57183;50.930;5.406;2022-09-13T05:06:18;5.90;;;3.75;;
69900;SDS011;57183;50.930;5.406;2022-09-13T05:08:49;5.78;;;3.63;;
69900;SDS011;57183;50.930;5.406;2022-09-13T05:11:20;4.60;;;3.77;;
69900;SDS011;57183;50.930;5.406;2022-09-13T05:13:53;9.60;;;3.55;;
69900;SDS011;57183;50.930;5.406;2022-09-13T05:16:22;6.55;;;3.30;;
69900;SDS011;57183;50.930;5.406;2022-09-13T05:18:49;5.38;;;3.40;;
69900;SDS011;57183;50.930;5.406;2022-09-13T05:21:15;5.50;;;3.22;;
69900;SDS011;57183;50.930;5.406;2022-09-13T05:23:42;5.05;;;3.20;;
69900;SDS011;57183;50.930;5.406;2022-09-13T05:26:09;4.70;;;3.28;;
69900;SDS011;57183;50.930;5.406;2022-09-13T05:28:35;5.88;;;2.95;;
69900;SDS011;57183;50.930;5.406;2022-09-13T05:31:03;6.50;;;3.72;;
69900;SDS011;57183;50.930;5.406;2022-09-13T05:33:32;5.75;;;3.05;;
69900;SDS011;57183;50.930;5.406;2022-09-13T05:35:59;12.00;;;4.28;;
69900;SDS011;57183;50.930;5.406;2022-09-13T05:38:25;4.47;;;3.63;;
69900;SDS011;57183;50.930;5.406;2022-09-13T05:40:55;5.07;;;3.58;;
69900;SDS011;57183;50.930;5.406;2022-09-13T05:43:26;6.30;;;3.40;;
69900;SDS011;57183;50.930;5.406;2022-09-13T05:46:03;4.80;;;2.90;;
69900;SDS011;57183;50.930;5.406;2022-09-13T05:48:35;7.57;;;3.38;;
69900;SDS011;57183;50.930;5.406;2022-09-13T05:51:08;5.20;;;3.30;;
69900;SDS011;57183;50.930;5.406;2022-09-13T05:53:39;4.00;;;3.60;;
69900;SDS011;57183;50.930;5.406;2022-09-13T05:56:11;3.55;;;3.20;;
69900;SDS011;57183;50.930;5.406;2022-09-13T05:58:39;3.85;;;3.55;;
69900;SDS011;57183;50.930;5.406;2022-09-13T06:01:06;4.72;;;3.47;;
69900;SDS011;57183;50.930;5.406;2022-09-13T06:03:31;3.92;;;2.80;;
69900;SDS011;57183;50.930;5.406;2022-09-13T06:05:58;4.68;;;3.38;;
69900;SDS011;57183;50.930;5.406;2022-09-13T06:08:27;6.20;;;3.25;;
69900;SDS011;57183;50.930;5.406;2022-09-13T06:10:54;6.85;;;3.65;;
69900;SDS011;57183;50.930;5.406;2022-09-13T06:13:22;3.33;;;3.03;;
69900;SDS011;57183;50.930;5.406;2022-09-13T06:15:48;5.13;;;3.08;;
69900;SDS011;57183;50.930;5.406;2022-09-13T06:18:17;6.70;;;2.97;;
69900;SDS011;57183;50.930;5.406;2022-09-13T06:20:43;6.68;;;2.65;;
69900;SDS011;57183;50.930;5.406;2022-09-13T06:23:09;4.70;;;3.30;;
69900;SDS011;57183;50.930;5.406;2022-09-13T06:25:35;7.03;;;3.15;;
69900;SDS011;57183;50.930;5.406;2022-09-13T06:28:01;5.40;;;3.25;;
69900;SDS011;57183;50.930;5.406;2022-09-13T06:30:27;6.80;;;3.13;;
69900;SDS011;57183;50.930;5.406;2022-09-13T06:32:54;3.85;;;3.38;;
69900;SDS011;57183;50.930;5.406;2022-09-13T06:35:21;3.92;;;3.10;;
69900;SDS011;57183;50.930;5.406;2022-09-13T06:37:46;4.57;;;3.33;;
69900;SDS011;57183;50.930;5.406;2022-09-13T06:40:12;4.40;;;3.00;;
69900;SDS011;57183;50.930;5.406;2022-09-13T06:42:38;4.32;;;2.70;;
69900;SDS011;57183;50.930;5.406;2022-09-13T06:45:04;4.90;;;3.75;;
69900;SDS011;57183;50.930;5.406;2022-09-13T06:47:31;11.13;;;4.97;;
69900;SDS011;57183;50.930;5.406;2022-09-13T06:49:56;6.97;;;4.10;;
69900;SDS011;57183;50.930;5.406;2022-09-13T06:52:22;4.45;;;3.80;;
69900;SDS011;57183;50.930;5.406;2022-09-13T06:54:48;8.70;;;4.05;;
69900;SDS011;57183;50.930;5.406;2022-09-13T06:57:14;4.07;;;3.67;;
69900;SDS011;57183;50.930;5.406;2022-09-13T06:59:40;10.18;;;3.78;;
69900;SDS011;57183;50.930;5.406;2022-09-13T07:02:06;7.40;;;3.75;;
69900;SDS011;57183;50.930;5.406;2022-09-13T07:04:33;6.63;;;4.15;;
69900;SDS011;57183;50.930;5.406;2022-09-13T07:07:01;7.20;;;3.83;;
69900;SDS011;57183;50.930;5.406;2022-09-13T07:09:27;4.03;;;3.45;;
69900;SDS011;57183;50.930;5.406;2022-09-13T07:11:53;4.32;;;3.92;;
69900;SDS011;57183;50.930;5.406;2022-09-13T07:14:23;10.13;;;4.32;;
69900;SDS011;57183;50.930;5.406;2022-09-13T07:16:51;8.05;;;3.85;;
69900;SDS011;57183;50.930;5.406;2022-09-13T07:19:18;8.55;;;3.47;;
69900;SDS011;57183;50.930;5.406;2022-09-13T07:21:51;5.25;;;3.85;;
69900;SDS011;57183;50.930;5.406;2022-09-13T07:24:17;3.42;;;3.10;;
69900;SDS011;57183;50.930;5.406;2022-09-13T07:26:44;11.82;;;3.10;;
69900;SDS011;57183;50.930;5.406;2022-09-13T07:29:11;6.85;;;3.30;;
69900;SDS011;57183;50.930;5.406;2022-09-13T07:31:44;7.63;;;3.63;;
69900;SDS011;57183;50.930;5.406;2022-09-13T07:34:14;6.45;;;3.03;;
69900;SDS011;57183;50.930;5.406;2022-09-13T07:36:41;5.28;;;2.83;;
69900;SDS011;57183;50.930;5.406;2022-09-13T07:39:07;3.22;;;2.92;;
69900;SDS011;57183;50.930;5.406;2022-09-13T07:41:33;6.07;;;2.95;;
69900;SDS011;57183;50.930;5.406;2022-09-13T07:43:59;4.82;;;3.90;;
69900;SDS011;57183;50.930;5.406;2022-09-13T07:46:26;3.72;;;2.88;;
69900;SDS011;57183;50.930;5.406;2022-09-13T07:48:56;5.15;;;2.58;;
69900;SDS011;57183;50.930;5.406;2022-09-13T07:51:23;3.13;;;2.28;;
69900;SDS011;57183;50.930;5.406;2022-09-13T07:53:53;4.38;;;2.92;;
69900;SDS011;57183;50.930;5.406;2022-09-13T07:56:22;6.68;;;2.70;;
69900;SDS011;57183;50.930;5.406;2022-09-13T07:58:50;5.68;;;2.50;;
69900;SDS011;57183;50.930;5.406;2022-09-13T08:01:17;2.65;;;2.33;;
69900;SDS011;57183;50.930;5.406;2022-09-13T08:03:52;4.93;;;2.42;;
69900;SDS011;57183;50.930;5.406;2022-09-13T08:06:22;9.02;;;2.63;;
69900;SDS011;57183;50.930;5.406;2022-09-13T08:08:49;5.63;;;2.78;;
69900;SDS011;57183;50.930;5.406;2022-09-13T08:11:22;4.18;;;2.30;;
69900;SDS011;57183;50.930;5.406;2022-09-13T08:13:49;3.35;;;2.38;;
69900;SDS011;57183;50.930;5.406;2022-09-13T08:16:17;4.18;;;2.70;;
69900;SDS011;57183;50.930;5.406;2022-09-13T08:18:54;2.85;;;2.28;;
69900;SDS011;57183;50.930;5.406;2022-09-13T08:21:21;2.53;;;2.33;;
69900;SDS011;57183;50.930;5.406;2022-09-13T08:23:48;6.28;;;2.50;;
69900;SDS011;57183;50.930;5.406;2022-09-13T08:26:17;4.43;;;2.45;;
69900;SDS011;57183;50.930;5.406;2022-09-13T08:28:43;2.78;;;2.47;;
69900;SDS011;57183;50.930;5.406;2022-09-13T08:31:10;3.90;;;2.20;;
69900;SDS011;57183;50.930;5.406;2022-09-13T08:33:41;2.25;;;2.05;;
69900;SDS011;57183;50.930;5.406;2022-09-13T08:36:08;6.28;;;2.33;;
69900;SDS011;57183;50.930;5.406;2022-09-13T08:38:34;3.60;;;2.33;;
69900;SDS011;57183;50.930;5.406;2022-09-13T08:41:03;4.18;;;2.22;;
69900;SDS011;57183;50.930;5.406;2022-09-13T08:43:48;4.03;;;2.47;;
69900;SDS011;57183;50.930;5.406;2022-09-13T08:46:28;2.42;;;1.95;;
69900;SDS011;57183;50.930;5.406;2022-09-13T08:49:00;6.47;;;2.40;;
69900;SDS011;57183;50.930;5.406;2022-09-13T08:51:31;3.45;;;2.42;;
69900;SDS011;57183;50.930;5.406;2022-09-13T08:56:37;7.30;;;2.20;;
69900;SDS011;57183;50.930;5.406;2022-09-13T09:04:25;9.23;;;2.67;;
69900;SDS011;57183;50.930;5.406;2022-09-13T09:06:55;3.67;;;2.13;;
69900;SDS011;57183;50.930;5.406;2022-09-13T09:12:38;6.13;;;1.80;;
69900;SDS011;57183;50.930;5.406;2022-09-13T09:17:58;7.35;;;2.05;;
69900;SDS011;57183;50.930;5.406;2022-09-13T09:20:38;3.45;;;1.88;;
69900;SDS011;57183;50.930;5.406;2022-09-13T09:23:15;4.90;;;2.40;;
69900;SDS011;57183;50.930;5.406;2022-09-13T09:25:44;3.20;;;2.08;;
69900;SDS011;57183;50.930;5.406;2022-09-13T09:28:11;4.93;;;1.75;;
69900;SDS011;57183;50.930;5.406;2022-09-13T09:30:42;8.10;;;2.15;;
69900;SDS011;57183;50.930;5.406;2022-09-13T09:33:42;4.63;;;1.67;;
69900;SDS011;57183;50.930;5.406;2022-09-13T09:38:46;4.50;;;2.25;;
69900;SDS011;57183;50.930;5.406;2022-09-13T09:41:21;3.00;;;2.25;;
69900;SDS011;57183;50.930;5.406;2022-09-13T09:46:38;4.60;;;1.90;;
69900;SDS011;57183;50.930;5.406;2022-09-13T09:49:36;4.82;;;2.33;;
69900;SDS011;57183;50.930;5.406;2022-09-13T09:52:16;5.68;;;2.10;;
69900;SDS011;57183;50.930;5.406;2022-09-13T09:54:46;4.57;;;1.90;;
69900;SDS011;57183;50.930;5.406;2022-09-13T09:57:14;2.28;;;1.98;;
69900;SDS011;57183;50.930;5.406;2022-09-13T09:59:42;3.28;;;2.38;;
69900;SDS011;57183;50.930;5.406;2022-09-13T10:02:15;2.63;;;1.67;;
69900;SDS011;57183;50.930;5.406;2022-09-13T10:04:52;4.78;;;2.05;;
69900;SDS011;57183;50.930;5.406;2022-09-13T10:07:25;5.35;;;1.85;;
69900;SDS011;57183;50.930;5.406;2022-09-13T10:09:56;4.63;;;2.50;;
69900;SDS011;57183;50.930;5.406;2022-09-13T10:12:44;5.05;;;1.83;;
69900;SDS011;57183;50.930;5.406;2022-09-13T10:15:16;5.78;;;1.90;;
69900;SDS011;57183;50.930;5.406;2022-09-13T10:23:33;6.75;;;2.35;;
69900;SDS011;57183;50.930;5.406;2022-09-13T10:28:44;4.20;;;2.33;;
69900;SDS011;57183;50.930;5.406;2022-09-13T10:31:27;2.88;;;1.63;;
69900;SDS011;57183;50.930;5.406;2022-09-13T10:34:03;5.50;;;2.47;;
69900;SDS011;57183;50.930;5.406;2022-09-13T10:36:35;3.78;;;1.55;;
69900;SDS011;57183;50.930;5.406;2022-09-13T10:39:05;3.63;;;1.92;;
69900;SDS011;57183;50.930;5.406;2022-09-13T10:41:41;7.72;;;2.00;;
69900;SDS011;57183;50.930;5.406;2022-09-13T10:44:22;7.70;;;2.10;;
69900;SDS011;57183;50.930;5.406;2022-09-13T10:46:54;3.55;;;2.08;;
69900;SDS011;57183;50.930;5.406;2022-09-13T10:55:40;2.63;;;1.58;;
69900;SDS011;57183;50.930;5.406;2022-09-13T10:57:50;2.75;;;1.63;;
69900;SDS011;57183;50.930;5.406;2022-09-13T11:00:19;3.97;;;1.48;;
69900;SDS011;57183;50.930;5.406;2022-09-13T11:03:12;2.55;;;1.70;;
69900;SDS011;57183;50.930;5.406;2022-09-13T11:11:29;4.88;;;2.10;;
69900;SDS011;57183;50.930;5.406;2022-09-13T11:17:01;2.17;;;1.98;;
69900;SDS011;57183;50.930;5.406;2022-09-13T11:22:39;2.17;;;1.80;;
69900;SDS011;57183;50.930;5.406;2022-09-13T11:30:34;3.42;;;1.58;;
69900;SDS011;57183;50.930;5.406;2022-09-13T11:46:24;4.65;;;1.60;;
69900;SDS011;57183;50.930;5.406;2022-09-13T11:57:42;2.50;;;1.48;;
69900;SDS011;57183;50.930;5.406;2022-09-13T12:05:26;2.42;;;1.52;;
69900;SDS011;57183;50.930;5.406;2022-09-13T12:10:38;4.70;;;1.85;;
69900;SDS011;57183;50.930;5.406;2022-09-13T12:13:16;2.83;;;1.50;;
69900;SDS011;57183;50.930;5.406;2022-09-13T12:15:46;3.83;;;1.60;;
69900;SDS011;57183;50.930;5.406;2022-09-13T12:18:24;1.60;;;1.50;;
69900;SDS011;57183;50.930;5.406;2022-09-13T12:23:35;1.80;;;1.60;;
69900;SDS011;57183;50.930;5.406;2022-09-13T12:26:09;2.00;;;1.33;;
69900;SDS011;57183;50.930;5.406;2022-09-13T12:31:28;3.45;;;1.38;;
69900;SDS011;57183;50.930;5.406;2022-09-13T12:33:55;3.67;;;1.85;;
69900;SDS011;57183;50.930;5.406;2022-09-13T12:44:11;6.18;;;2.15;;
69900;SDS011;57183;50.930;5.406;2022-09-13T12:52:23;6.68;;;1.30;;
69900;SDS011;57183;50.930;5.406;2022-09-13T12:58:09;2.92;;;0.93;;
69900;SDS011;57183;50.930;5.406;2022-09-13T13:01:07;1.83;;;1.50;;
69900;SDS011;57183;50.930;5.406;2022-09-13T13:03:54;4.18;;;1.40;;
69900;SDS011;57183;50.930;5.406;2022-09-13T13:06:25;4.68;;;1.50;;
69900;SDS011;57183;50.930;5.406;2022-09-13T13:11:52;3.67;;;1.40;;
69900;SDS011;57183;50.930;5.406;2022-09-13T13:16:53;1.75;;;1.27;;
69900;SDS011;57183;50.930;5.406;2022-09-13T13:19:32;3.08;;;1.50;;
69900;SDS011;57183;50.930;5.406;2022-09-13T13:28:12;2.45;;;1.30;;
69900;SDS011;57183;50.930;5.406;2022-09-13T13:31:07;1.27;;;1.17;;
69900;SDS011;57183;50.930;5.406;2022-09-13T13:33:48;2.03;;;1.27;;
69900;SDS011;57183;50.930;5.406;2022-09-13T13:38:58;1.70;;;1.20;;
69900;SDS011;57183;50.930;5.406;2022-09-13T13:43:57;3.28;;;1.50;;
69900;SDS011;57183;50.930;5.406;2022-09-13T13:46:26;2.70;;;1.55;;
69900;SDS011;57183;50.930;5.406;2022-09-13T13:48:54;3.45;;;1.25;;
69900;SDS011;57183;50.930;5.406;2022-09-13T13:51:24;4.05;;;1.05;;
69900;SDS011;57183;50.930;5.406;2022-09-13T13:54:26;1.30;;;1.20;;
69900;SDS011;57183;50.930;5.406;2022-09-13T13:56:53;2.05;;;1.30;;
69900;SDS011;57183;50.930;5.406;2022-09-13T13:59:53;6.20;;;2.05;;
69900;SDS011;57183;50.930;5.406;2022-09-13T14:02:13;4.10;;;1.30;;
69900;SDS011;57183;50.930;5.406;2022-09-13T14:10:43;3.25;;;1.70;;
69900;SDS011;57183;50.930;5.406;2022-09-13T14:14:18;2.55;;;1.20;;
69900;SDS011;57183;50.930;5.406;2022-09-13T14:16:33;2.15;;;1.42;;
69900;SDS011;57183;50.930;5.406;2022-09-13T14:21:38;3.50;;;1.55;;
69900;SDS011;57183;50.930;5.406;2022-09-13T14:26:49;14.43;;;2.15;;
69900;SDS011;57183;50.930;5.406;2022-09-13T14:29:18;4.47;;;1.30;;
69900;SDS011;57183;50.930;5.406;2022-09-13T14:31:49;4.60;;;1.63;;
69900;SDS011;57183;50.930;5.406;2022-09-13T14:34:26;3.13;;;1.40;;
69900;SDS011;57183;50.930;5.406;2022-09-13T14:36:57;4.18;;;1.42;;
69900;SDS011;57183;50.930;5.406;2022-09-13T14:39:25;3.08;;;1.50;;
69900;SDS011;57183;50.930;5.406;2022-09-13T14:44:37;2.85;;;1.30;;
69900;SDS011;57183;50.930;5.406;2022-09-13T14:49:44;3.00;;;1.63;;
69900;SDS011;57183;50.930;5.406;2022-09-13T14:52:23;2.83;;;1.77;;
69900;SDS011;57183;50.930;5.406;2022-09-13T14:54:55;4.13;;;1.38;;
69900;SDS011;57183;50.930;5.406;2022-09-13T14:57:30;3.03;;;1.70;;
69900;SDS011;57183;50.930;5.406;2022-09-13T15:02:58;6.13;;;1.90;;
69900;SDS011;57183;50.930;5.406;2022-09-13T15:05:29;1.55;;;1.45;;
69900;SDS011;57183;50.930;5.406;2022-09-13T15:07:57;3.50;;;1.67;;
69900;SDS011;57183;50.930;5.406;2022-09-13T15:10:24;6.15;;;2.30;;
69900;SDS011;57183;50.930;5.406;2022-09-13T15:15:34;4.70;;;2.03;;
69900;SDS011;57183;50.930;5.406;2022-09-13T15:18:06;4.00;;;1.92;;
69900;SDS011;57183;50.930;5.406;2022-09-13T15:20:57;2.60;;;1.95;;
69900;SDS011;57183;50.930;5.406;2022-09-13T15:23:35;3.33;;;1.92;;
69900;SDS011;57183;50.930;5.406;2022-09-13T15:28:33;3.67;;;2.15;;
69900;SDS011;57183;50.930;5.406;2022-09-13T15:31:07;4.30;;;2.38;;
69900;SDS011;57183;50.930;5.406;2022-09-13T15:33:34;9.27;;;1.85;;
69900;SDS011;57183;50.930;5.406;2022-09-13T15:36:13;4.15;;;1.63;;
69900;SDS011;57183;50.930;5.406;2022-09-13T15:38:59;2.47;;;1.95;;
69900;SDS011;57183;50.930;5.406;2022-09-13T15:41:32;5.05;;;2.05;;
69900;SDS011;57183;50.930;5.406;2022-09-13T15:44:04;5.43;;;1.98;;
69900;SDS011;57183;50.930;5.406;2022-09-13T15:46:31;3.40;;;2.10;;
69900;SDS011;57183;50.930;5.406;2022-09-13T15:49:02;5.85;;;2.20;;
69900;SDS011;57183;50.930;5.406;2022-09-13T15:51:30;4.38;;;2.53;;
69900;SDS011;57183;50.930;5.406;2022-09-13T15:53:56;5.38;;;2.75;;
69900;SDS011;57183;50.930;5.406;2022-09-13T15:56:31;6.47;;;2.10;;
69900;SDS011;57183;50.930;5.406;2022-09-13T15:59:01;3.80;;;2.63;;
69900;SDS011;57183;50.930;5.406;2022-09-13T16:01:27;4.32;;;2.50;;
69900;SDS011;57183;50.930;5.406;2022-09-13T16:03:53;2.67;;;2.38;;
69900;SDS011;57183;50.930;5.406;2022-09-13T16:06:18;2.60;;;2.33;;
69900;SDS011;57183;50.930;5.406;2022-09-13T16:08:44;3.05;;;2.60;;
69900;SDS011;57183;50.930;5.406;2022-09-13T16:11:10;4.40;;;2.60;;
69900;SDS011;57183;50.930;5.406;2022-09-13T16:13:35;5.20;;;2.65;;
69900;SDS011;57183;50.930;5.406;2022-09-13T16:16:02;5.05;;;2.47;;
69900;SDS011;57183;50.930;5.406;2022-09-13T16:18:29;8.80;;;2.67;;
69900;SDS011;57183;50.930;5.406;2022-09-13T16:20:55;5.18;;;2.60;;
69900;SDS011;57183;50.930;5.406;2022-09-13T16:23:21;8.02;;;3.03;;
69900;SDS011;57183;50.930;5.406;2022-09-13T16:25:47;8.13;;;3.13;;
69900;SDS011;57183;50.930;5.406;2022-09-13T16:28:17;5.68;;;2.90;;
69900;SDS011;57183;50.930;5.406;2022-09-13T16:30:45;3.58;;;2.78;;
69900;SDS011;57183;50.930;5.406;2022-09-13T16:33:11;8.20;;;3.58;;
69900;SDS011;57183;50.930;5.406;2022-09-13T16:35:37;6.30;;;2.50;;
69900;SDS011;57183;50.930;5.406;2022-09-13T16:38:02;5.25;;;3.58;;
69900;SDS011;57183;50.930;5.406;2022-09-13T16:40:28;7.10;;;2.80;;
69900;SDS011;57183;50.930;5.406;2022-09-13T16:42:54;8.57;;;4.15;;
69900;SDS011;57183;50.930;5.406;2022-09-13T16:45:22;5.00;;;3.47;;
69900;SDS011;57183;50.930;5.406;2022-09-13T16:47:48;4.80;;;3.75;;
69900;SDS011;57183;50.930;5.406;2022-09-13T16:50:17;3.92;;;3.55;;
69900;SDS011;57183;50.930;5.406;2022-09-13T16:52:43;5.90;;;5.30;;
69900;SDS011;57183;50.930;5.406;2022-09-13T16:55:09;5.07;;;4.13;;
69900;SDS011;57183;50.930;5.406;2022-09-13T16:57:35;8.07;;;4.20;;
69900;SDS011;57183;50.930;5.406;2022-09-13T17:00:02;7.10;;;5.55;;
69900;SDS011;57183;50.930;5.406;2022-09-13T17:02:32;6.75;;;5.38;;
69900;SDS011;57183;50.930;5.406;2022-09-13T17:04:58;6.45;;;5.22;;
69900;SDS011;57183;50.930;5.406;2022-09-13T17:07:24;9.18;;;6.50;;
69900;SDS011;57183;50.930;5.406;2022-09-13T17:09:50;8.38;;;5.47;;
69900;SDS011;57183;50.930;5.406;2022-09-13T17:12:16;8.65;;;5.78;;
69900;SDS011;57183;50.930;5.406;2022-09-13T17:14:42;8.15;;;5.40;;
69900;SDS011;57183;50.930;5.406;2022-09-13T17:17:11;7.78;;;5.05;;
69900;SDS011;57183;50.930;5.406;2022-09-13T17:19:39;6.80;;;4.93;;
69900;SDS011;57183;50.930;5.406;2022-09-13T17:22:05;6.43;;;5.82;;
69900;SDS011;57183;50.930;5.406;2022-09-13T17:24:34;7.00;;;6.07;;
69900;SDS011;57183;50.930;5.406;2022-09-13T17:27:01;6.82;;;5.32;;
69900;SDS011;57183;50.930;5.406;2022-09-13T17:29:28;7.97;;;6.07;;
69900;SDS011;57183;50.930;5.406;2022-09-13T17:32:04;7.53;;;6.28;;
69900;SDS011;57183;50.930;5.406;2022-09-13T17:34:30;9.85;;;6.47;;
69900;SDS011;57183;50.930;5.406;2022-09-13T17:36:58;8.25;;;5.82;;
69900;SDS011;57183;50.930;5.406;2022-09-13T17:39:24;8.75;;;6.00;;
69900;SDS011;57183;50.930;5.406;2022-09-13T17:41:50;7.18;;;5.50;;
69900;SDS011;57183;50.930;5.406;2022-09-13T17:44:15;9.02;;;5.45;;
69900;SDS011;57183;50.930;5.406;2022-09-13T17:46:41;9.70;;;5.22;;
69900;SDS011;57183;50.930;5.406;2022-09-13T17:49:07;7.45;;;4.93;;
69900;SDS011;57183;50.930;5.406;2022-09-13T17:51:33;7.20;;;5.53;;
69900;SDS011;57183;50.930;5.406;2022-09-13T17:54:00;6.75;;;5.03;;
69900;SDS011;57183;50.930;5.406;2022-09-13T17:57:01;8.60;;;5.97;;
69900;SDS011;57183;50.930;5.406;2022-09-13T17:59:20;9.38;;;6.03;;
69900;SDS011;57183;50.930;5.406;2022-09-13T18:01:50;12.40;;;7.13;;
69900;SDS011;57183;50.930;5.406;2022-09-13T18:04:18;15.57;;;7.05;;
69900;SDS011;57183;50.930;5.406;2022-09-13T18:06:45;7.85;;;6.00;;
69900;SDS011;57183;50.930;5.406;2022-09-13T18:09:12;8.13;;;6.22;;
69900;SDS011;57183;50.930;5.406;2022-09-13T18:11:39;7.43;;;6.28;;
69900;SDS011;57183;50.930;5.406;2022-09-13T18:14:05;9.15;;;6.47;;
69900;SDS011;57183;50.930;5.406;2022-09-13T18:16:34;10.65;;;6.32;;
69900;SDS011;57183;50.930;5.406;2022-09-13T18:19:01;14.50;;;7.45;;
69900;SDS011;57183;50.930;5.406;2022-09-13T18:21:26;10.20;;;7.40;;
69900;SDS011;57183;50.930;5.406;2022-09-13T18:23:54;6.38;;;5.65;;
69900;SDS011;57183;50.930;5.406;2022-09-13T18:26:25;7.13;;;5.65;;
69900;SDS011;57183;50.930;5.406;2022-09-13T18:28:53;6.45;;;5.93;;
69900;SDS011;57183;50.930;5.406;2022-09-13T18:31:20;6.22;;;5.68;;
69900;SDS011;57183;50.930;5.406;2022-09-13T18:33:46;9.50;;;6.80;;
69900;SDS011;57183;50.930;5.406;2022-09-13T18:36:13;10.57;;;7.38;;
69900;SDS011;57183;50.930;5.406;2022-09-13T18:38:44;7.10;;;6.35;;
69900;SDS011;57183;50.930;5.406;2022-09-13T18:43:41;10.15;;;7.05;;
69900;SDS011;57183;50.930;5.406;2022-09-13T18:46:09;9.68;;;7.47;;
69900;SDS011;57183;50.930;5.406;2022-09-13T18:48:38;8.10;;;7.30;;